createdAt,value
2023-07-09T00:01:45.769Z,64.70
2023-07-09T00:04:12.627Z,64.48
2023-07-09T00:06:40.194Z,64.58
2023-07-09T00:09:07.505Z,64.32
2023-07-09T00:11:34.156Z,64.28
2023-07-09T00:14:00.813Z,64.23
2023-07-09T00:16:27.477Z,64.26
2023-07-09T00:18:54.150Z,64.26
2023-07-09T00:21:21.630Z,63.99
2023-07-09T00:23:48.194Z,64.17
2023-07-09T00:26:15.021Z,64.15
2023-07-09T00:28:42.541Z,64.57
2023-07-09T00:31:18.036Z,64.65
2023-07-09T00:33:44.814Z,64.62
2023-07-09T00:36:35.637Z,64.45
2023-07-09T00:39:02.463Z,64.55
2023-07-09T00:41:29.015Z,64.74
2023-07-09T00:43:55.609Z,64.62
2023-07-09T00:46:22.116Z,65.06
2023-07-09T00:48:50.428Z,64.79
2023-07-09T00:51:18.499Z,64.83
2023-07-09T00:53:45.956Z,64.86
2023-07-09T00:56:17.688Z,65.12
2023-07-09T00:58:44.347Z,64.76
2023-07-09T01:01:12.003Z,64.95
2023-07-09T01:03:41.690Z,65.09
2023-07-09T01:06:08.304Z,64.48
2023-07-09T01:08:36.024Z,64.87
2023-07-09T01:11:02.709Z,64.57
2023-07-09T01:13:29.357Z,64.74
2023-07-09T01:15:56.078Z,64.80
2023-07-09T01:18:22.731Z,65.00
2023-07-09T01:20:49.312Z,64.82
2023-07-09T01:23:15.903Z,65.17
2023-07-09T01:25:47.229Z,64.99
2023-07-09T01:28:13.820Z,64.85
2023-07-09T01:30:41.531Z,64.82
2023-07-09T01:33:08.184Z,64.88
2023-07-09T01:35:35.923Z,64.73
2023-07-09T01:38:02.578Z,64.92
2023-07-09T01:40:32.547Z,65.25
2023-07-09T01:43:01.234Z,64.88
2023-07-09T01:45:28.455Z,64.99
2023-07-09T01:47:55.242Z,65.29
2023-07-09T01:50:21.869Z,64.99
2023-07-09T01:52:48.462Z,64.82
2023-07-09T01:55:15.158Z,65.25
2023-07-09T01:57:41.779Z,65.30
2023-07-09T02:00:13.931Z,65.33
2023-07-09T02:02:44.274Z,65.34
2023-07-09T02:05:11.608Z,65.04
2023-07-09T02:07:38.154Z,64.56
2023-07-09T02:10:04.984Z,64.07
2023-07-09T02:12:31.568Z,64.45
2023-07-09T02:14:58.176Z,64.19
2023-07-09T02:17:24.919Z,64.05
2023-07-09T02:19:51.482Z,64.37
2023-07-09T02:22:18.109Z,63.98
2023-07-09T02:24:44.655Z,64.28
2023-07-09T02:27:11.402Z,64.54
2023-07-09T02:29:38.196Z,64.54
2023-07-09T02:32:05.170Z,64.57
2023-07-09T02:34:31.870Z,64.81
2023-07-09T02:36:59.370Z,64.44
2023-07-09T02:39:26.208Z,64.55
2023-07-09T02:41:52.804Z,64.31
2023-07-09T02:44:19.411Z,64.48
2023-07-09T02:46:46.170Z,64.30
2023-07-09T02:49:13.481Z,64.60
2023-07-09T02:51:40.144Z,64.65
2023-07-09T02:54:06.788Z,64.18
2023-07-09T02:56:33.395Z,64.63
2023-07-09T02:58:59.972Z,64.79
2023-07-09T03:01:26.549Z,64.44
2023-07-09T03:03:53.836Z,64.69
2023-07-09T03:06:21.693Z,64.29
2023-07-09T03:08:48.391Z,64.54
2023-07-09T03:11:15.346Z,64.00
2023-07-09T03:13:41.923Z,64.44
2023-07-09T03:16:08.585Z,64.78
2023-07-09T03:18:35.158Z,64.56
2023-07-09T03:21:01.750Z,64.22
2023-07-09T03:23:28.327Z,64.33
2023-07-09T03:25:55.856Z,64.30
2023-07-09T03:28:22.507Z,64.35
2023-07-09T03:30:49.222Z,64.50
2023-07-09T03:33:16.656Z,64.21
2023-07-09T03:35:43.507Z,64.12
2023-07-09T03:38:10.477Z,64.26
2023-07-09T03:40:37.146Z,64.22
2023-07-09T03:43:03.695Z,63.75
2023-07-09T03:45:30.898Z,63.77
2023-07-09T03:47:57.543Z,63.82
2023-07-09T03:50:24.185Z,64.37
2023-07-09T03:52:50.801Z,63.82
2023-07-09T03:55:17.375Z,64.48
2023-07-09T03:57:43.944Z,63.69
2023-07-09T04:00:10.840Z,64.09
2023-07-09T04:02:40.705Z,63.85
2023-07-09T04:05:07.983Z,63.95
2023-07-09T04:07:34.580Z,64.00
2023-07-09T04:10:01.133Z,63.80
2023-07-09T04:12:27.774Z,63.82
2023-07-09T04:14:54.353Z,64.20
2023-07-09T04:17:20.991Z,63.65
2023-07-09T04:19:47.589Z,64.13
2023-07-09T04:22:14.204Z,64.22
2023-07-09T04:24:40.805Z,64.00
2023-07-09T04:27:07.508Z,64.34
2023-07-09T04:29:34.159Z,64.01
2023-07-09T04:32:01.271Z,64.10
2023-07-09T04:34:27.949Z,64.16
2023-07-09T04:36:54.492Z,63.97
2023-07-09T04:39:21.085Z,64.17
2023-07-09T04:41:48.371Z,64.35
2023-07-09T04:44:15.158Z,63.44
2023-07-09T04:46:41.823Z,63.37
2023-07-09T04:49:08.511Z,63.21
2023-07-09T04:51:35.064Z,62.87
2023-07-09T04:54:01.636Z,62.89
2023-07-09T04:56:28.273Z,62.09
2023-07-09T04:58:54.875Z,62.04
2023-07-09T05:01:21.494Z,61.84
2023-07-09T05:03:48.114Z,62.16
2023-07-09T05:06:14.923Z,61.99
2023-07-09T05:08:41.478Z,61.58
2023-07-09T05:11:08.088Z,61.74
2023-07-09T05:13:34.745Z,61.89
2023-07-09T05:16:01.774Z,61.34
2023-07-09T05:18:28.711Z,60.83
2023-07-09T05:20:55.772Z,60.65
2023-07-09T05:23:22.344Z,59.80
2023-07-09T05:25:48.958Z,59.14
2023-07-09T05:28:15.562Z,58.76
2023-07-09T05:30:43.254Z,58.63
2023-07-09T05:33:09.944Z,58.32
2023-07-09T05:35:36.595Z,57.74
2023-07-09T05:38:03.257Z,58.24
2023-07-09T05:40:29.870Z,58.39
2023-07-09T05:42:56.517Z,58.45
2023-07-09T05:45:23.097Z,58.04
2023-07-09T05:47:49.664Z,57.74
2023-07-09T05:50:16.406Z,57.19
2023-07-09T05:52:42.998Z,56.98
2023-07-09T05:55:09.824Z,57.73
2023-07-09T05:57:36.349Z,57.45
2023-07-09T06:00:02.992Z,57.96
2023-07-09T06:02:29.638Z,57.43
2023-07-09T06:04:56.255Z,57.69
2023-07-09T06:07:22.982Z,57.93
2023-07-09T06:09:49.628Z,57.83
2023-07-09T06:12:16.197Z,57.84
2023-07-09T06:14:42.851Z,58.12
2023-07-09T06:17:09.524Z,58.05
2023-07-09T06:19:36.180Z,58.19
2023-07-09T06:22:02.757Z,58.34
2023-07-09T06:24:29.372Z,57.78
2023-07-09T06:26:55.983Z,57.78
2023-07-09T06:29:22.532Z,57.76
2023-07-09T06:31:49.121Z,58.31
2023-07-09T06:34:15.745Z,58.35
2023-07-09T06:36:44.308Z,58.57
2023-07-09T06:39:11.257Z,58.88
2023-07-09T06:41:37.831Z,58.52
2023-07-09T06:44:04.462Z,59.06
2023-07-09T06:46:31.066Z,59.37
2023-07-09T06:48:57.734Z,59.40
2023-07-09T06:51:24.317Z,60.01
2023-07-09T06:53:50.887Z,59.74
2023-07-09T06:56:17.817Z,60.01
2023-07-09T06:58:44.474Z,59.21
2023-07-09T07:01:11.086Z,59.10
2023-07-09T07:03:37.835Z,58.87
2023-07-09T07:06:04.941Z,59.18
2023-07-09T07:08:31.758Z,59.37
2023-07-09T07:11:00.605Z,58.75
2023-07-09T07:13:30.249Z,58.30
2023-07-09T07:15:57.189Z,57.70
2023-07-09T07:18:23.801Z,58.35
2023-07-09T07:20:50.543Z,57.42
2023-07-09T07:23:17.150Z,57.64
2023-07-09T07:25:50.054Z,58.07
2023-07-09T07:28:16.806Z,57.75
2023-07-09T07:30:43.575Z,57.46
2023-07-09T07:33:10.137Z,57.46
2023-07-09T07:35:36.779Z,58.33
2023-07-09T07:38:03.711Z,58.48
2023-07-09T07:40:30.388Z,58.41
2023-07-09T07:42:56.969Z,58.07
2023-07-09T07:45:23.550Z,58.39
2023-07-09T07:47:50.153Z,57.56
2023-07-09T07:50:16.738Z,57.61
2023-07-09T07:52:43.338Z,58.02
2023-07-09T07:55:13.366Z,57.47
2023-07-09T07:57:42.424Z,57.18
2023-07-09T08:00:09.520Z,56.81
2023-07-09T08:02:36.317Z,56.50
2023-07-09T08:05:02.916Z,56.11
2023-07-09T08:07:29.531Z,57.03
2023-07-09T08:09:56.143Z,56.91
2023-07-09T08:12:22.685Z,57.08
2023-07-09T08:14:49.315Z,56.78
2023-07-09T08:17:15.970Z,56.79
2023-07-09T08:19:55.215Z,57.06
2023-07-09T08:22:22.154Z,56.58
2023-07-09T08:24:49.400Z,56.43
2023-07-09T08:27:15.976Z,56.68
2023-07-09T08:29:42.693Z,56.54
2023-07-09T08:32:10.228Z,55.96
2023-07-09T08:34:50.123Z,54.95
2023-07-09T08:37:26.795Z,54.84
2023-07-09T08:39:53.349Z,54.10
2023-07-09T08:42:26.653Z,53.83
2023-07-09T08:45:15.009Z,53.03
2023-07-09T08:48:04.250Z,53.07
2023-07-09T08:50:37.697Z,53.34
2023-07-09T08:53:04.260Z,52.43
2023-07-09T08:55:30.842Z,52.18
2023-07-09T08:58:02.195Z,51.68
2023-07-09T09:00:32.933Z,51.16
2023-07-09T09:03:01.556Z,50.00
2023-07-09T09:05:28.316Z,50.10
2023-07-09T09:07:59.676Z,49.94
2023-07-09T09:10:34.602Z,49.62
2023-07-09T09:13:12.757Z,48.72
2023-07-09T09:15:44.336Z,47.90
2023-07-09T09:18:23.013Z,47.11
2023-07-09T09:21:04.594Z,47.05
2023-07-09T09:23:40.435Z,46.95
2023-07-09T09:26:14.525Z,47.43
2023-07-09T09:28:41.135Z,46.69
2023-07-09T09:31:11.728Z,47.03
2023-07-09T09:33:45.010Z,47.17
2023-07-09T09:36:22.709Z,46.85
2023-07-09T09:38:49.355Z,46.70
2023-07-09T09:41:20.346Z,46.14
2023-07-09T09:43:47.942Z,45.96
2023-07-09T09:46:19.061Z,45.54
2023-07-09T09:52:14.806Z,45.05
2023-07-09T09:54:42.581Z,44.76
2023-07-09T09:57:20.523Z,45.37
2023-07-09T09:59:47.408Z,45.06
2023-07-09T10:02:25.384Z,44.53
2023-07-09T10:04:52.401Z,43.45
2023-07-09T10:07:28.531Z,44.03
2023-07-09T10:09:55.619Z,42.74
2023-07-09T10:12:47.059Z,43.65
2023-07-09T10:15:38.928Z,44.61
2023-07-09T10:18:24.344Z,43.95
2023-07-09T10:21:25.185Z,43.87
2023-07-09T10:24:21.039Z,44.05
2023-07-09T10:26:49.424Z,44.53
2023-07-09T10:29:33.300Z,43.80
2023-07-09T10:32:25.174Z,42.65
2023-07-09T10:35:08.859Z,42.15
2023-07-09T10:37:45.301Z,41.95
2023-07-09T10:40:14.139Z,41.25
2023-07-09T10:42:49.070Z,41.51
2023-07-09T10:45:20.433Z,41.54
2023-07-09T10:47:52.563Z,42.42
2023-07-09T10:50:34.610Z,40.89
2023-07-09T10:53:42.675Z,40.48
2023-07-09T10:56:21.628Z,40.98
2023-07-09T10:58:52.210Z,40.59
2023-07-09T11:01:18.851Z,40.60
2023-07-09T11:03:53.118Z,40.15
2023-07-09T11:06:27.564Z,39.43
2023-07-09T11:08:54.285Z,40.07
2023-07-09T11:11:26.512Z,39.72
2023-07-09T11:13:55.422Z,40.77
2023-07-09T11:16:29.953Z,38.80
2023-07-09T11:18:59.237Z,39.40
2023-07-09T11:21:25.966Z,39.71
2023-07-09T11:23:58.788Z,38.70
2023-07-09T11:26:30.085Z,39.39
2023-07-09T11:29:03.584Z,38.81
2023-07-09T11:31:40.586Z,39.95
2023-07-09T11:34:07.047Z,40.61
2023-07-09T11:36:33.718Z,39.72
2023-07-09T11:39:01.634Z,40.48
2023-07-09T11:41:44.342Z,41.20
2023-07-09T11:44:15.924Z,39.53
2023-07-09T11:47:20.241Z,39.54
2023-07-09T11:49:48.315Z,39.54
2023-07-09T11:52:14.912Z,38.27
2023-07-09T11:54:42.389Z,37.78
2023-07-09T11:57:12.715Z,37.60
2023-07-09T11:59:42.660Z,37.15
2023-07-09T12:02:18.762Z,35.43
2023-07-09T12:04:45.320Z,35.40
2023-07-09T12:07:14.043Z,35.11
2023-07-09T12:09:43.149Z,33.52
2023-07-09T12:12:25.872Z,34.17
2023-07-09T12:14:52.491Z,35.02
2023-07-09T12:17:19.341Z,34.43
2023-07-09T12:19:45.917Z,34.95
2023-07-09T12:22:20.600Z,35.87
2023-07-09T12:24:48.404Z,36.59
2023-07-09T12:27:20.283Z,36.48
2023-07-09T12:29:46.840Z,36.12
2023-07-09T12:32:15.523Z,37.11
2023-07-09T12:34:42.112Z,36.49
2023-07-09T12:37:13.157Z,37.02
2023-07-09T12:39:39.735Z,36.55
2023-07-09T12:42:06.406Z,35.68
2023-07-09T12:44:36.409Z,35.90
2023-07-09T12:47:03.066Z,36.02
2023-07-09T12:49:31.098Z,35.07
2023-07-09T12:52:02.331Z,35.15
2023-07-09T12:54:31.681Z,35.44
2023-07-09T12:57:00.181Z,35.95
2023-07-09T12:59:38.453Z,36.11
2023-07-09T13:02:20.179Z,36.07
2023-07-09T13:04:47.079Z,35.17
2023-07-09T13:07:22.974Z,36.42
2023-07-09T13:09:53.266Z,36.01
2023-07-09T13:12:20.795Z,36.87
2023-07-09T13:14:54.646Z,36.84
2023-07-09T13:17:21.225Z,35.20
2023-07-09T13:19:47.805Z,35.53
2023-07-09T13:22:15.300Z,35.89
2023-07-09T13:24:41.851Z,34.38
2023-07-09T13:27:12.552Z,34.84
2023-07-09T13:29:39.115Z,34.35
2023-07-09T13:32:13.129Z,34.09
2023-07-09T13:34:39.734Z,34.37
2023-07-09T13:37:07.079Z,34.40
2023-07-09T13:39:33.645Z,33.55
2023-07-09T13:42:00.233Z,34.77
2023-07-09T13:44:28.836Z,34.10
2023-07-09T13:46:56.198Z,35.50
2023-07-09T13:49:25.306Z,34.97
2023-07-09T13:51:52.302Z,33.74
2023-07-09T13:54:21.419Z,33.27
2023-07-09T13:56:48.035Z,33.62
2023-07-09T13:59:22.202Z,34.83
2023-07-09T14:01:49.804Z,35.73
2023-07-09T14:04:17.048Z,35.19
2023-07-09T14:06:43.801Z,35.99
2023-07-09T14:09:13.989Z,36.61
2023-07-09T14:11:50.106Z,36.53
2023-07-09T14:14:25.005Z,34.00
2023-07-09T14:16:51.667Z,34.44
2023-07-09T14:19:20.105Z,33.15
2023-07-09T14:21:47.324Z,32.91
2023-07-09T14:24:25.513Z,32.53
2023-07-09T14:26:53.075Z,33.00
2023-07-09T14:29:19.766Z,34.40
2023-07-09T14:31:47.037Z,33.83
2023-07-09T14:34:25.096Z,35.57
2023-07-09T14:36:54.003Z,36.58
2023-07-09T14:39:20.735Z,37.01
2023-07-09T14:41:47.303Z,35.53
2023-07-09T14:44:21.316Z,35.58
2023-07-09T14:46:47.912Z,35.26
2023-07-09T14:49:14.491Z,35.30
2023-07-09T14:51:41.660Z,34.93
2023-07-09T14:54:20.452Z,33.61
2023-07-09T14:56:49.429Z,33.85
2023-07-09T14:59:16.034Z,33.78
2023-07-09T15:01:42.618Z,33.60
2023-07-09T15:04:32.206Z,33.43
2023-07-09T15:06:59.224Z,33.70
2023-07-09T15:09:27.299Z,33.23
2023-07-09T15:11:55.274Z,34.33
2023-07-09T15:14:22.019Z,34.38
2023-07-09T15:16:49.184Z,34.08
2023-07-09T15:19:16.343Z,32.78
2023-07-09T15:21:42.956Z,34.81
2023-07-09T15:24:31.449Z,33.75
2023-07-09T15:26:58.083Z,34.17
2023-07-09T15:29:25.504Z,34.26
2023-07-09T15:31:52.183Z,34.93
2023-07-09T15:34:18.828Z,34.84
2023-07-09T15:36:47.158Z,36.06
2023-07-09T15:39:15.035Z,36.55
2023-07-09T15:41:41.757Z,36.07
2023-07-09T15:44:16.920Z,36.45
2023-07-09T15:46:54.438Z,35.67
2023-07-09T15:49:21.273Z,35.38
2023-07-09T15:51:48.184Z,35.05
2023-07-09T15:54:21.898Z,35.31
2023-07-09T15:56:49.046Z,35.79
2023-07-09T15:59:29.086Z,36.08
2023-07-09T16:01:55.834Z,36.12
2023-07-09T16:04:22.527Z,35.72
2023-07-09T16:06:49.185Z,35.81
2023-07-09T16:09:15.809Z,36.52
2023-07-09T16:11:52.626Z,37.64
2023-07-09T16:14:21.966Z,36.80
2023-07-09T16:16:49.107Z,36.04
2023-07-09T16:19:15.697Z,36.59
2023-07-09T16:21:42.364Z,37.65
2023-07-09T16:24:20.388Z,37.41
2023-07-09T16:26:46.995Z,37.00
2023-07-09T16:29:23.435Z,36.74
2023-07-09T16:31:52.718Z,36.32
2023-07-09T16:34:20.354Z,36.15
2023-07-09T16:36:46.909Z,36.41
2023-07-09T16:39:42.972Z,37.41
2023-07-09T16:42:11.440Z,37.28
2023-07-09T16:44:38.050Z,37.80
2023-07-09T16:47:10.900Z,37.46
2023-07-09T16:49:38.803Z,38.11
2023-07-09T16:52:13.891Z,38.61
2023-07-09T16:54:40.495Z,38.61
2023-07-09T16:57:22.396Z,38.37
2023-07-09T16:59:49.584Z,39.19
2023-07-09T17:02:30.614Z,39.34
2023-07-09T17:04:58.827Z,39.55
2023-07-09T17:07:25.385Z,38.98
2023-07-09T17:09:53.806Z,38.92
2023-07-09T17:12:20.374Z,38.89
2023-07-09T17:14:46.976Z,39.47
2023-07-09T17:17:20.956Z,39.87
2023-07-09T17:19:47.632Z,39.89
2023-07-09T17:22:18.245Z,40.23
2023-07-09T17:24:44.890Z,40.75
2023-07-09T17:27:11.516Z,41.09
2023-07-09T17:29:41.357Z,40.70
2023-07-09T17:32:08.176Z,41.20
2023-07-09T17:34:34.907Z,41.36
2023-07-09T17:37:01.540Z,41.97
2023-07-09T17:39:28.179Z,41.89
2023-07-09T17:41:54.793Z,41.91
2023-07-09T17:44:22.801Z,42.42
2023-07-09T17:46:51.751Z,42.59
2023-07-09T17:49:32.795Z,42.66
2023-07-09T17:51:59.528Z,43.00
2023-07-09T17:54:26.992Z,42.32
2023-07-09T17:56:55.070Z,43.17
2023-07-09T17:59:23.715Z,43.04
2023-07-09T18:02:14.460Z,43.15
2023-07-09T18:04:41.053Z,43.49
2023-07-09T18:07:21.830Z,43.55
2023-07-09T18:09:48.509Z,43.92
2023-07-09T18:12:17.437Z,43.71
2023-07-09T18:14:44.815Z,43.83
2023-07-09T18:17:27.398Z,44.42
2023-07-09T18:19:53.981Z,44.44
2023-07-09T18:22:21.632Z,44.26
2023-07-09T18:24:48.403Z,44.61
2023-07-09T18:27:32.933Z,44.66
2023-07-09T18:29:59.606Z,45.11
2023-07-09T18:32:27.171Z,45.25
2023-07-09T18:34:59.003Z,45.11
2023-07-09T18:37:25.631Z,45.58
2023-07-09T18:39:52.224Z,45.51
2023-07-09T18:42:20.421Z,45.61
2023-07-09T18:44:47.155Z,46.06
2023-07-09T18:47:15.047Z,46.06
2023-07-09T18:49:41.716Z,46.31
2023-07-09T18:52:18.958Z,46.63
2023-07-09T18:54:47.175Z,47.08
2023-07-09T18:57:14.710Z,47.32
2023-07-09T18:59:41.479Z,48.24
2023-07-09T19:02:19.212Z,48.50
2023-07-09T19:04:45.967Z,49.61
2023-07-09T19:07:13.463Z,49.98
2023-07-09T19:09:40.147Z,51.04
2023-07-09T19:12:07.125Z,51.82
2023-07-09T19:14:33.956Z,52.17
2023-07-09T19:17:02.259Z,52.67
2023-07-09T19:19:29.022Z,52.82
2023-07-09T19:21:56.066Z,53.14
2023-07-09T19:24:27.541Z,53.47
2023-07-09T19:26:54.886Z,53.99
2023-07-09T19:29:22.380Z,54.21
2023-07-09T19:31:51.076Z,54.66
2023-07-09T19:34:22.509Z,54.90
2023-07-09T19:36:49.860Z,55.80
2023-07-09T19:39:34.909Z,55.69
2023-07-09T19:42:15.499Z,55.52
2023-07-09T19:44:42.143Z,56.22
2023-07-09T19:47:17.899Z,56.53
2023-07-09T19:49:44.649Z,55.55
2023-07-09T19:52:14.710Z,53.93
2023-07-09T19:54:42.120Z,53.53
2023-07-09T19:57:08.639Z,54.11
2023-07-09T19:59:35.296Z,54.82
2023-07-09T20:02:01.933Z,55.25
2023-07-09T20:04:28.511Z,56.93
2023-07-09T20:06:55.062Z,58.56
2023-07-09T20:09:21.673Z,61.12
2023-07-09T20:11:50.088Z,62.83
2023-07-09T20:14:18.954Z,64.17
2023-07-09T20:16:45.636Z,64.75
2023-07-09T20:19:13.260Z,64.88
2023-07-09T20:21:40.050Z,64.61
2023-07-09T20:24:24.902Z,64.92
2023-07-09T20:26:51.451Z,65.75
2023-07-09T20:29:18.655Z,66.42
2023-07-09T20:31:46.318Z,67.24
2023-07-09T20:34:20.550Z,67.57
2023-07-09T20:36:47.541Z,68.06
2023-07-09T20:39:19.298Z,68.49
2023-07-09T20:41:46.085Z,69.11
2023-07-09T20:44:27.014Z,69.35
2023-07-09T20:46:53.864Z,70.17
2023-07-09T20:49:28.930Z,70.70
2023-07-09T20:51:55.857Z,72.07
2023-07-09T20:54:22.463Z,72.21
2023-07-09T20:56:49.116Z,72.30
2023-07-09T20:59:19.139Z,72.79
2023-07-09T21:01:46.235Z,73.55
2023-07-09T21:04:15.031Z,73.98
2023-07-09T21:06:41.912Z,74.41
2023-07-09T21:09:28.484Z,75.52
2023-07-09T21:11:55.053Z,76.83
2023-07-09T21:14:21.672Z,78.09
2023-07-09T21:16:49.042Z,79.81
2023-07-09T21:19:47.910Z,81.20
2023-07-09T21:22:14.723Z,83.30
2023-07-09T21:24:41.498Z,85.02
2023-07-09T21:27:08.165Z,86.28
2023-07-09T21:29:34.795Z,86.91
2023-07-09T21:32:06.640Z,88.26
2023-07-09T21:34:33.993Z,89.15
2023-07-09T21:37:02.944Z,90.60
2023-07-09T21:39:31.254Z,91.68
2023-07-09T21:41:57.969Z,92.10
2023-07-09T21:44:26.359Z,92.78
2023-07-09T21:47:02.079Z,93.82
2023-07-09T21:49:29.800Z,94.95
2023-07-09T21:51:56.438Z,95.20
2023-07-09T21:57:04.689Z,96.07
2023-07-09T21:59:31.936Z,96.30
2023-07-09T22:02:00.381Z,96.68
2023-07-09T22:04:36.754Z,96.97
2023-07-09T22:07:24.380Z,96.99
2023-07-09T22:09:52.894Z,97.63
2023-07-09T22:12:19.542Z,97.93
2023-07-09T22:14:47.613Z,98.09
2023-07-09T22:17:14.172Z,98.35
2023-07-09T22:19:45.113Z,98.08
2023-07-09T22:22:12.124Z,97.75
2023-07-09T22:24:38.688Z,97.59
2023-07-09T22:27:06.525Z,97.59
2023-07-09T22:29:33.098Z,97.78
2023-07-09T22:31:59.693Z,98.24
2023-07-09T22:34:26.393Z,98.10
2023-07-09T22:36:52.982Z,98.08
2023-07-09T22:39:19.526Z,98.22
2023-07-09T22:41:46.479Z,98.52
2023-07-09T22:44:13.649Z,98.61
2023-07-09T22:46:43.906Z,98.98
2023-07-09T22:49:16.951Z,99.27
2023-07-09T22:51:43.588Z,99.54
2023-07-09T22:54:13.422Z,100.00
2023-07-09T22:56:40.060Z,99.36
2023-07-09T22:59:06.653Z,99.52
2023-07-09T23:01:33.272Z,99.21
2023-07-09T23:04:00.107Z,99.56
2023-07-09T23:06:27.403Z,99.41
2023-07-09T23:08:55.286Z,99.67
2023-07-09T23:11:27.487Z,99.51
2023-07-09T23:13:54.227Z,99.32
2023-07-09T23:16:25.968Z,99.42
2023-07-09T23:18:52.730Z,99.47
2023-07-09T23:21:23.576Z,99.52
2023-07-09T23:23:51.348Z,99.34
2023-07-09T23:26:17.990Z,99.68
2023-07-09T23:28:44.543Z,99.74
2023-07-09T23:31:26.525Z,99.46
2023-07-09T23:33:53.689Z,99.37
2023-07-09T23:36:20.400Z,99.75
2023-07-09T23:38:47.000Z,99.36
2023-07-09T23:41:24.605Z,99.42
2023-07-09T23:43:51.215Z,99.64
2023-07-09T23:46:17.793Z,99.94
2023-07-09T23:48:48.931Z,100.00
2023-07-09T23:51:18.243Z,99.78
2023-07-09T23:53:44.788Z,99.79
2023-07-09T23:56:17.342Z,100.00
2023-07-09T23:58:43.906Z,100.00
